• Join FlightAware (Why Join?)
  • Login
  • US Flag 
01:39PM EDT


 

Airport Tracker/Info


-or-


 

Live Flight TrackerFlight Track Log ✈ USC191 ✈ 24-May-2013 ✈ KSUS - KADS

Flight Track Log - Related Links

Times and Time Zones

All times are in EDT time to prevent confusion due to time zone crossing. See the USC191 flight status page for this flight to view local times or setup timezone preferences in your user account.

Time Position Orientation Groundspeed Altitude Reporting Facility
EDT Latitude Longitude Course Direction KTS MPH feet Rate Location/Type
04:07AM 38.6167 -90.7167 218° Southwest 155 178 2,800  Level Gateway (St. Louis) TRACON
04:08AM 38.5922 -90.7464 224° Southwest 152 175 3,700 960 Climbing Kansas City Center
04:09AM 38.5597 -90.7817 220° Southwest 154 177 4,700 1,020 Climbing Kansas City Center
04:10AM 38.5281 -90.8200 223° Southwest 157 181 5,800 660 Climbing Kansas City Center
04:11AM 38.4967 -90.8606 225° Southwest 159 183 6,100 60 Climbing Kansas City Center
04:12AM 38.4556 -90.9050 220° Southwest 186 214 6,000 -60 Descending Kansas City Center
04:13AM 38.4083 -90.9619 223° Southwest 194 223 6,000  Level Kansas City Center
04:14AM 38.3678 -91.0106 223° Southwest 198 228 6,000  Level Kansas City Center
04:15AM 38.3289 -91.0567 223° Southwest 194 223 6,000  Level Kansas City Center
04:16AM 38.2889 -91.1044 223° Southwest 197 227 6,000  Level Kansas City Center
04:17AM 38.2469 -91.1522 222° Southwest 200 230 6,000  Level Kansas City Center
04:18AM 38.2058 -91.2003 223° Southwest 201 231 6,000  Level Kansas City Center
04:19AM 38.1656 -91.2483 223° Southwest 200 230 6,000  Level Kansas City Center
04:20AM 38.1283 -91.2950 225° Southwest 199 229 6,000  Level Kansas City Center
04:21AM 38.0869 -91.3436 223° Southwest 200 230 6,000  Level Kansas City Center
04:22AM 38.0453 -91.3900 221° Southwest 199 229 6,000  Level Kansas City Center
04:23AM 38.0033 -91.4386 222° Southwest 201 231 6,000  Level Kansas City Center
04:24AM 37.9639 -91.4878 225° Southwest 199 229 6,000  Level Kansas City Center
04:25AM 37.9228 -91.5353 222° Southwest 198 228 6,000  Level Kansas City Center
04:26AM 37.8811 -91.5831 222° Southwest 200 230 6,000  Level Kansas City Center
04:27AM 37.8417 -91.6311 224° Southwest 198 228 6,000  Level Kansas City Center
04:28AM 37.8008 -91.6783 222° Southwest 197 227 6,000  Level Kansas City Center
04:29AM 37.7597 -91.7244 222° Southwest 197 227 6,000  Level Kansas City Center
04:30AM 37.7197 -91.7711 223° Southwest 196 226 6,000  Level Kansas City Center
04:31AM 37.6792 -91.8178 222° Southwest 196 226 6,000  Level Kansas City Center
04:32AM 37.6397 -91.8653 224° Southwest 195 224 6,000  Level Kansas City Center
04:33AM 37.5997 -91.9106 222° Southwest 193 222 6,000  Level Kansas City Center
04:34AM 37.5592 -91.9567 222° Southwest 195 224 6,000  Level Kansas City Center
04:35AM 37.5200 -92.0031 223° Southwest 193 222 6,000  Level Kansas City Center
04:36AM 37.4800 -92.0492 222° Southwest 194 223 6,000  Level Kansas City Center
04:37AM 37.4394 -92.0942 221° Southwest 193 222 6,000  Level Kansas City Center
04:38AM 37.3997 -92.1406 223° Southwest 193 222 6,000  Level Kansas City Center
04:39AM 37.3586 -92.1861 221° Southwest 194 223 6,000  Level Kansas City Center
04:40AM 37.3183 -92.2333 223° Southwest 195 224 6,000  Level Kansas City Center
04:41AM 37.2789 -92.2797 223° Southwest 195 224 6,000  Level Kansas City Center
04:42AM 37.2383 -92.3258 222° Southwest 195 224 6,000  Level Kansas City Center
04:43AM 37.1981 -92.3708 222° Southwest 195 224 6,000  Level Kansas City Center
04:44AM 37.1494 -92.4264 222° Southwest 195 224 6,000  Level Kansas City Center
04:45AM 37.1092 -92.4722 222° Southwest 194 223 6,000  Level Kansas City Center
04:46AM 37.0689 -92.5178 222° Southwest 195 224 6,000  Level Kansas City Center
04:47AM 37.0283 -92.5633 222° Southwest 195 224 6,000  Level Kansas City Center
04:48AM 36.9872 -92.6097 222° Southwest 196 226 6,000  Level Kansas City Center
04:49AM 36.9475 -92.6542 222° Southwest 194 223 6,000  Level Kansas City Center
04:50AM 36.9075 -92.6997 222° Southwest 194 223 6,000  Level Kansas City Center
04:51AM 36.8692 -92.7464 224° Southwest 192 221 6,000  Level Kansas City Center
04:52AM 36.8300 -92.7886 221° Southwest 190 219 6,000  Level Kansas City Center
04:53AM 36.7903 -92.8300 220° Southwest 188 216 6,000  Level Kansas City Center
04:54AM 36.7514 -92.8758 223° Southwest 188 216 6,000  Level Kansas City Center
04:55AM 36.7114 -92.9206 222° Southwest 190 219 6,000  Level Kansas City Center
04:56AM 36.6722 -92.9647 222° Southwest 190 219 6,000  Level Kansas City Center
04:57AM 36.6322 -93.0064 220° Southwest 188 216 6,000  Level Kansas City Center
04:58AM 36.5936 -93.0503 222° Southwest 188 216 6,000  Level Kansas City Center
04:59AM 36.5553 -93.0947 223° Southwest 188 216 6,000  Level Kansas City Center
05:00AM 36.5203 -93.1294 219° Southwest 187 215 6,000  Level Kansas City Center
05:01AM 36.4819 -93.1700 220° Southwest 184 212 6,000  Level Kansas City Center
05:02AM 36.4358 -93.2203 221° Southwest 184 212 6,000  Level Kansas City Center
05:03AM 36.3989 -93.2650 224° Southwest 185 213 6,000  Level Kansas City Center
05:04AM 36.3594 -93.3056 220° Southwest 184 212 6,000  Level Kansas City Center
05:05AM 36.3208 -93.3503 223° Southwest 188 216 6,000  Level Kansas City Center
05:06AM 36.2833 -93.3919 222° Southwest 183 211 6,100  Climbing Kansas City Center
05:07AM 36.2453 -93.4331 221° Southwest 183 211 6,100  Level Kansas City Center
05:08AM 36.2069 -93.4753 222° Southwest 184 212 6,100  Level Kansas City Center
05:09AM 36.1675 -93.5178 221° Southwest 187 215 6,100  Level Kansas City Center
05:10AM 36.1292 -93.5603 222° Southwest 186 214 6,100  Level Kansas City Center
05:11AM 36.0911 -93.6025 222° Southwest 185 213 6,200 -60 Climbing Kansas City Center
05:12AM 36.0422 -93.6531 220° Southwest 188 216 6,000 -120 Descending Memphis Center
05:13AM 36.0014 -93.6950 220° Southwest 188 216 6,000  Level Memphis Center
05:14AM 35.9647 -93.7372 223° Southwest 188 216 6,100  Climbing Memphis Center
05:15AM 35.9261 -93.7792 221° Southwest 188 216 6,100 -60 Level Memphis Center
05:16AM 35.8875 -93.8211 221° Southwest 188 216 6,000 -60 Descending Memphis Center
05:17AM 35.8489 -93.8631 221° Southwest 188 216 6,000  Level Memphis Center
05:18AM 35.8100 -93.9047 221° Southwest 188 216 6,100  Climbing Memphis Center
05:19AM 35.7714 -93.9467 221° Southwest 188 216 6,000 -60 Descending Memphis Center
05:20AM 35.7325 -93.9886 221° Southwest 188 216 6,000  Level Memphis Center
05:21AM 35.6917 -94.0300 219° Southwest 188 216 6,100  Climbing Memphis Center
05:22AM 35.6633 -94.0722 230° Southwest 188 216 6,100  Level Memphis Center
05:23AM 35.6161 -94.1161 217° Southwest 188 216 6,100  Level Memphis Center
05:24AM 35.5753 -94.1553 218° Southwest 188 216 6,100 -60 Level Memphis Center
05:25AM 35.5367 -94.1967 221° Southwest 188 216 6,000  Descending Memphis Center
05:26AM 35.4997 -94.2383 223° Southwest 188 216 6,100  Climbing Memphis Center
05:27AM 35.4589 -94.2797 220° Southwest 188 216 6,100  Level Memphis Center
05:28AM 35.4222 -94.3189 221° Southwest 188 216 6,100 -60 Level Memphis Center
05:29AM 35.3917 -94.3608 228° Southwest 182 209 6,000  Descending Memphis Center
05:30AM 35.3444 -94.4017 215° Southwest 185 213 6,100  Climbing Memphis Center
05:31AM 35.3056 -94.4406 219° Southwest 190 219 6,100  Level Memphis Center
05:32AM 35.2667 -94.4819 221° Southwest 185 213 6,100  Level Memphis Center
05:33AM 35.2319 -94.5233 224° Southwest 185 213 6,100  Level Memphis Center
05:34AM 35.1931 -94.5622 219° Southwest 185 213 6,100 -60 Level Memphis Center
05:35AM 35.1519 -94.6033 219° Southwest 185 213 6,000 -60 Descending Memphis Center
05:36AM 35.1175 -94.6422 223° Southwest 185 213 6,000  Level Memphis Center
05:37AM 35.0825 -94.6861 226° Southwest 185 213 6,100  Climbing Memphis Center
05:38AM 35.0456 -94.7272 222° Southwest 185 213 6,100  Level Memphis Center
05:39AM 35.0275 -94.7464 221° Southwest 185 213 6,100  Level Fort Worth Center
05:40AM 34.9908 -94.7831 219° Southwest 185 213 6,100 -60 Level Fort Worth Center
05:41AM 34.9542 -94.8219 221° Southwest 185 213 6,000  Descending Fort Worth Center
05:42AM 34.9233 -94.8558 222° Southwest 185 213 6,100  Climbing Fort Worth Center
05:43AM 34.8867 -94.8950 221° Southwest 185 213 6,100 -60 Level Fort Worth Center
05:44AM 34.8478 -94.9342 220° Southwest 179 206 6,000 -60 Descending Fort Worth Center
05:45AM 34.8111 -94.9731 221° Southwest 179 206 6,000  Level Fort Worth Center
05:46AM 34.7764 -95.0094 221° Southwest 179 206 6,100  Climbing Fort Worth Center
05:47AM 34.7436 -95.0433 220° Southwest 179 206 6,100 -60 Level Fort Worth Center
05:48AM 34.7089 -95.0794 221° Southwest 174 200 6,000  Descending Fort Worth Center
05:49AM 34.6678 -95.1211 220° Southwest 174 200 6,100  Climbing Fort Worth Center
05:50AM 34.6308 -95.1575 219° Southwest 179 206 6,100  Level Fort Worth Center
05:51AM 34.5919 -95.1961 219° Southwest 179 206 6,100  Level Fort Worth Center
05:52AM 34.5611 -95.2272 220° Southwest 179 206 6,100 -60 Level Fort Worth Center
05:53AM 34.5161 -95.2739 221° Southwest 179 206 6,000 -60 Descending Fort Worth Center
05:54AM 34.4811 -95.3075 218° Southwest 179 206 6,000  Level Fort Worth Center
05:55AM 34.4464 -95.3486 224° Southwest 170 196 6,000  Level Fort Worth Center
05:56AM 34.4094 -95.3822 217° Southwest 175 201 6,100  Climbing Fort Worth Center
05:57AM 34.3725 -95.4233 223° Southwest 175 201 6,100  Level Fort Worth Center
05:58AM 34.3336 -95.4619 219° Southwest 175 201 6,100 -60 Level Fort Worth Center
05:59AM 34.2986 -95.4978 220° Southwest 175 201 6,000  Descending Fort Worth Center
06:00AM 34.2617 -95.5364 221° Southwest 175 201 6,100  Climbing Fort Worth Center
06:01AM 34.2225 -95.5750 219° Southwest 175 201 6,100  Level Fort Worth Center
06:02AM 34.1875 -95.6108 220° Southwest 175 201 6,100 -60 Level Fort Worth Center
06:03AM 34.1567 -95.6467 224° Southwest 183 211 6,000  Descending Fort Worth Center
06:04AM 34.1136 -95.6850 216° Southwest 183 211 6,100  Climbing Fort Worth Center
06:05AM 34.0764 -95.7233 220° Southwest 183 211 6,100  Level Fort Worth Center
06:06AM 34.0436 -95.7667 228° Southwest 183 211 6,100  Level Fort Worth Center
06:07AM 34.0106 -95.7897 210° Southwest 183 211 6,100  Level Fort Worth Center
06:08AM 33.9694 -95.8408 226° Southwest 183 211 6,100  Level Fort Worth Center
06:09AM 33.9283 -95.8789 218° Southwest 188 216 6,100  Level Fort Worth Center
06:10AM 33.8889 -95.9122 215° Southwest 183 211 6,100  Level Fort Worth Center
06:11AM 33.8561 -95.9578 229° Southwest 183 211 6,100 -60 Level Fort Worth Center
06:12AM 33.8189 -95.9858 212° Southwest 183 211 6,000 -60 Descending Fort Worth Center
06:13AM 33.7775 -96.0317 223° Southwest 183 211 6,000  Level Fort Worth Center
06:14AM 33.7444 -96.0644 220° Southwest 183 211 6,000  Level Fort Worth Center
06:15AM 33.7033 -96.1078 221° Southwest 188 216 6,000  Level Fort Worth Center
06:16AM 33.6703 -96.1406 220° Southwest 181 208 6,000 -60 Level Fort Worth Center
06:17AM 33.6289 -96.1811 219° Southwest 181 208 5,900  Descending Fort Worth Center
06:18AM 33.5958 -96.2139 220° Southwest 181 208 6,000  Climbing Fort Worth Center
06:19AM 33.5544 -96.2544 219° Southwest 181 208 6,000  Level Fort Worth Center
06:20AM 33.5214 -96.2897 222° Southwest 181 208 6,000  Level Fort Worth Center
06:21AM 33.4800 -96.3300 219° Southwest 181 208 6,000 -60 Level Fort Worth Center
06:22AM 33.4469 -96.3653 222° Southwest 181 208 5,900  Descending Fort Worth Center
06:23AM 33.4033 -96.4056 218° Southwest 186 214 6,000  Climbing Fort Worth Center
06:24AM 33.3703 -96.4383 220° Southwest 186 214 6,000  Level Fort Worth Center
06:25AM 33.3289 -96.4811 221° Southwest 186 214 6,000  Level Fort Worth Center
06:26AM 33.2956 -96.5139 219° Southwest 186 214 6,000 -180 Level Fort Worth Center
06:27AM 33.2564 -96.5539 221° Southwest 186 214 5,700 -480 Descending Fort Worth Center
06:28AM 33.2147 -96.5964 220° Southwest 191 220 5,100 -840 Descending Fort Worth Center
06:29AM 33.1733 -96.6392 221° Southwest 196 226 4,100 -1,020 Descending Fort Worth Center
06:30AM 33.1297 -96.6817 219° Southwest 201 231 3,100 -900 Descending Fort Worth Center
06:31AM 33.1000 -96.7167 225° Southwest 188 216 2,500 -360 Descending Dallas / Fort Worth TRACON
06:32AM 33.0500 -96.7500 209° Southwest 155 178 2,500  Level Dallas / Fort Worth TRACON
06:33AM 33.0333 -96.7667 220° Southwest 146 168 2,500 -240 Level Dallas / Fort Worth TRACON
06:34AM 33.0167 -96.8167 248° West 157 181 2,100 -600 Descending Dallas / Fort Worth TRACON
06:35AM 33.0000 -96.8500 239° Southwest 132 152 1,300 -840 Descending Dallas / Fort Worth TRACON
06:37AM 32.9667 -96.8333 248° West  Level FlightAware Approximate
06:44AM 32.9686 -96.8364 248° West  Level Estimated